Time;durP1;ratioP1;P1;durP2;ratioP2;P2;SDS_P1;SDS_P2;PMS_P1;PMS_P2;Temp;Humidity;BMP_temperature;BMP_pressure;BME280_temperature;BME280_humidity;BME280_pressure;Samples;Min_cycle;Max_cycle;Signal;HPM_P1;HPM_P2
2022/08/02 00:01:46;;;;;;;7.90;3.28;;;;;;;14.79;100.00;101535.34;5082366;28;20032;-83
2022/08/02 00:04:12;;;;;;;6.05;3.42;;;;;;;14.73;100.00;101543.28;5069293;28;20119;-83
2022/08/02 00:06:37;;;;;;;6.32;3.60;;;;;;;14.77;100.00;101531.84;5067501;28;20024;-83
2022/08/02 00:09:04;;;;;;;13.27;6.30;;;;;;;14.84;100.00;101530.31;5099458;28;20032;-83
2022/08/02 00:11:30;;;;;;;11.05;6.72;;;;;;;14.67;100.00;101525.38;5070303;28;20017;-84
2022/08/02 00:13:56;;;;;;;10.38;4.30;;;;;;;14.69;100.00;101526.09;5070362;28;20040;-82
2022/08/02 00:16:22;;;;;;;4.35;3.53;;;;;;;14.70;100.00;101527.88;5039184;28;20093;-85
2022/08/02 00:18:50;;;;;;;10.10;3.65;;;;;;;14.60;100.00;101532.44;5053532;28;20391;-83
2022/08/02 00:21:16;;;;;;;8.57;3.38;;;;;;;14.40;100.00;101534.97;5066471;28;20024;-83
2022/08/02 00:23:41;;;;;;;6.82;3.17;;;;;;;14.34;100.00;101528.06;5052563;28;20055;-83
2022/08/02 00:26:07;;;;;;;9.20;3.45;;;;;;;14.41;100.00;101531.19;5067238;28;20103;-82
2022/08/02 00:28:34;;;;;;;10.23;3.25;;;;;;;14.40;100.00;101536.84;5080693;28;20032;-83
2022/08/02 00:31:00;;;;;;;6.18;3.47;;;;;;;14.38;100.00;101534.22;5049985;28;20089;-83
2022/08/02 00:33:26;;;;;;;10.45;3.53;;;;;;;14.40;100.00;101536.84;5064864;28;20029;-82
2022/08/02 00:35:52;;;;;;;4.68;3.58;;;;;;;14.48;100.00;101537.94;5080294;28;20057;-83
2022/08/02 00:38:18;;;;;;;4.85;3.60;;;;;;;14.56;100.00;101547.41;5069681;28;20511;-83
2022/08/02 00:40:48;;;;;;;6.10;3.60;;;;;;;14.52;100.00;101552.31;5016717;28;20032;-83
2022/08/02 00:43:17;;;;;;;8.90;3.50;;;;;;;14.51;100.00;101553.31;5052630;28;20040;-83
2022/08/02 00:45:43;;;;;;;5.97;3.15;;;;;;;14.36;100.00;101525.19;5049411;28;20094;-83
2022/08/02 00:48:12;;;;;;;6.15;3.40;;;;;;;14.64;100.00;101540.31;5075476;28;20024;-83
2022/08/02 00:50:40;;;;;;;9.60;3.45;;;;;;;14.70;100.00;101527.88;5052644;28;20036;-83
2022/08/02 00:53:08;;;;;;;12.23;3.63;;;;;;;14.71;100.00;101537.91;5104195;28;20028;-82
2022/08/02 00:55:36;;;;;;;5.95;3.25;;;;;;;14.88;100.00;101547.47;5049076;28;20407;-85
2022/08/02 00:58:02;;;;;;;9.52;3.65;;;;;;;14.83;100.00;101546.97;5041804;28;20068;-82
2022/08/02 01:00:32;;;;;;;8.70;4.05;;;;;;;14.66;100.00;101524.50;5096453;28;20043;-82
2022/08/02 01:02:58;;;;;;;10.63;3.53;;;;;;;14.72;100.00;101523.09;5068625;28;20028;-82
2022/08/02 01:05:29;;;;;;;10.48;3.75;;;;;;;14.71;100.00;101526.88;5084022;28;20103;-82
2022/08/02 01:07:54;;;;;;;10.40;3.60;;;;;;;14.63;100.00;101515.63;5045126;28;20063;-83
2022/08/02 01:10:20;;;;;;;16.52;3.78;;;;;;;14.64;100.00;101511.84;5102812;28;20028;-81
2022/08/02 01:12:47;;;;;;;8.27;3.13;;;;;;;14.59;100.00;101514.09;5084675;28;20484;-82
2022/08/02 01:15:16;;;;;;;5.70;3.20;;;;;;;14.60;100.00;101505.72;5047198;28;20036;-82
2022/08/02 01:17:56;;;;;;;6.25;3.00;;;;;;;14.49;100.00;101508.50;5084692;28;20403;-82
2022/08/02 01:20:42;;;;;;;6.82;3.30;;;;;;;14.38;100.00;101509.44;5083764;28;20028;-83
2022/08/02 01:23:45;;;;;;;12.38;3.47;;;;;;;14.36;100.00;101503.16;5066587;28;20116;-83
2022/08/02 01:26:24;;;;;;;9.02;3.30;;;;;;;14.38;100.00;101508.53;5106381;28;20031;-82
2022/08/02 01:28:53;;;;;;;5.05;3.20;;;;;;;14.40;100.00;101512.91;5087811;28;20020;-83
2022/08/02 01:31:21;;;;;;;12.93;3.25;;;;;;;14.39;100.00;101511.16;5068435;28;20019;-83
2022/08/02 01:34:10;;;;;;;7.25;3.17;;;;;;;14.38;100.00;101509.44;5071357;28;20108;-83
2022/08/02 01:36:40;;;;;;;10.38;3.63;;;;;;;14.31;100.00;101506.31;5103294;28;20047;-84
2022/08/02 01:39:13;;;;;;;7.30;3.30;;;;;;;14.36;100.00;101510.53;5072878;28;20024;-81
2022/08/02 01:41:45;;;;;;;4.85;3.20;;;;;;;14.39;100.00;101511.16;5095463;28;20024;-83
2022/08/02 01:44:13;;;;;;;10.93;3.33;;;;;;;14.33;100.00;101501.53;5093614;28;20036;-82
2022/08/02 01:46:41;;;;;;;10.07;3.20;;;;;;;14.29;100.00;101499.19;5110627;28;20031;-82
2022/08/02 01:49:16;;;;;;;10.20;3.53;;;;;;;14.39;100.00;101511.16;5090668;28;20016;-83
2022/08/02 01:54:31;;;;;;;11.68;3.92;;;;;;;14.41;100.00;101502.75;5107213;28;19962;-81
2022/08/02 01:57:01;;;;;;;11.43;3.55;;;;;;;14.40;100.00;101501.03;5067637;28;20054;-82
2022/08/02 01:59:28;;;;;;;8.90;3.03;;;;;;;14.33;100.00;101493.28;5065943;28;20092;-82
2022/08/02 02:02:00;;;;;;;13.02;3.78;;;;;;;14.38;100.00;101495.66;5087048;28;20032;-82
2022/08/02 02:04:31;;;;;;;9.57;3.40;;;;;;;14.45;100.00;101496.00;5089116;28;20031;-82
2022/08/02 02:06:58;;;;;;;12.38;3.97;;;;;;;14.32;100.00;101494.28;5086392;28;20301;-81
2022/08/02 02:09:29;;;;;;;11.05;3.47;;;;;;;14.46;100.00;101494.97;5093081;28;20111;-83
2022/08/02 02:11:58;;;;;;;5.95;2.92;;;;;;;14.49;100.00;101467.16;5082436;28;20032;-82
2022/08/02 02:14:26;;;;;;;7.63;3.20;;;;;;;14.47;100.00;101461.78;5107366;28;20416;-83
2022/08/02 02:16:52;;;;;;;9.55;3.90;;;;;;;14.53;100.00;101471.41;5071429;28;20035;-82
2022/08/02 02:19:19;;;;;;;8.80;2.70;;;;;;;14.34;100.00;101450.94;5066389;28;20056;-83
2022/08/02 02:21:45;;;;;;;6.57;3.40;;;;;;;14.39;100.00;101467.06;5086609;28;20061;-85
2022/08/02 02:24:11;;;;;;;9.35;3.15;;;;;;;14.34;100.00;101470.22;5105943;28;20048;-82
2022/08/02 02:26:40;;;;;;;9.57;3.45;;;;;;;14.41;100.00;101476.06;5087834;28;20040;-82
2022/08/02 02:29:09;;;;;;;6.38;3.28;;;;;;;14.32;100.00;101455.72;5071827;28;20016;-82
2022/08/02 02:31:38;;;;;;;7.07;3.53;;;;;;;14.38;100.00;101462.59;5080072;28;20054;-82
2022/08/02 02:34:24;;;;;;;8.65;3.63;;;;;;;14.36;100.00;101455.44;5070765;28;20026;-81
2022/08/02 02:36:51;;;;;;;6.28;3.42;;;;;;;14.30;100.00;101452.22;5086877;28;20093;-81
2022/08/02 02:39:22;;;;;;;11.52;4.00;;;;;;;14.38;100.00;101447.91;5087577;28;20039;-81
2022/08/02 02:41:50;;;;;;;13.05;4.20;;;;;;;14.40;100.00;101451.44;5087179;28;20036;-82
2022/08/02 02:44:20;;;;;;;7.22;2.92;;;;;;;14.35;100.00;101438.06;5087064;28;20047;-82
2022/08/02 02:46:53;;;;;;;8.93;3.08;;;;;;;14.36;100.00;101450.81;5082218;28;20024;-82
2022/08/02 02:49:21;;;;;;;12.40;3.40;;;;;;;14.24;100.00;101444.47;5070140;28;20047;-81
2022/08/02 02:51:47;;;;;;;8.98;2.97;;;;;;;14.08;100.00;101438.53;5086850;28;20028;-84
2022/08/02 02:54:17;;;;;;;12.45;3.10;;;;;;;14.11;100.00;101450.13;5050115;28;20404;-83
2022/08/02 02:56:44;;;;;;;10.05;3.15;;;;;;;14.08;100.00;101446.78;5060961;28;20495;-84
2022/08/02 02:59:13;;;;;;;13.48;3.00;;;;;;;14.07;100.00;101451.41;5067600;28;20028;-82
2022/08/02 03:01:42;;;;;;;14.93;4.90;;;;;;;14.01;100.00;101451.94;5080059;28;20411;-80
2022/08/02 03:04:11;;;;;;;8.35;2.70;;;;;;;14.00;100.00;101449.31;5068723;28;20028;-82
2022/08/02 03:06:37;;;;;;;5.03;3.00;;;;;;;13.88;100.00;101432.81;5054105;28;20032;-82
2022/08/02 03:09:06;;;;;;;4.65;3.00;;;;;;;13.95;100.00;101452.44;5089320;28;20426;-82
2022/08/02 03:11:34;;;;;;;9.93;3.72;;;;;;;13.97;100.00;101447.72;5057826;28;20028;-81
2022/08/02 03:14:02;;;;;;;8.15;3.15;;;;;;;14.02;100.00;101444.53;5041986;28;20032;-82
2022/08/02 03:16:30;;;;;;;8.85;2.85;;;;;;;14.02;100.00;101442.69;5099189;28;20027;-82
2022/08/02 03:19:01;;;;;;;8.00;3.05;;;;;;;13.86;100.00;101440.34;5068452;28;20028;-82
2022/08/02 03:21:29;;;;;;;8.48;3.13;;;;;;;13.79;100.00;101425.34;5068967;28;20032;-81
2022/08/02 03:23:55;;;;;;;10.77;3.55;;;;;;;13.81;100.00;101434.34;5084806;28;20032;-82
2022/08/02 03:26:20;;;;;;;7.07;3.20;;;;;;;13.91;100.00;101431.69;5069253;28;20040;-81
2022/08/02 03:28:47;;;;;;;9.60;3.35;;;;;;;13.94;100.00;101432.31;5082496;28;20059;-81
2022/08/02 03:31:13;;;;;;;10.45;3.40;;;;;;;13.94;100.00;101439.69;5068233;28;20564;-81
2022/08/02 03:33:39;;;;;;;7.90;3.90;;;;;;;13.86;100.00;101422.94;5087550;28;20052;-82
2022/08/02 03:36:09;;;;;;;11.30;3.45;;;;;;;13.95;100.00;101431.31;5070060;28;20051;-81
2022/08/02 03:38:36;;;;;;;8.38;3.17;;;;;;;14.02;100.00;101428.00;5087003;28;20032;-81
2022/08/02 03:41:04;;;;;;;10.63;4.38;;;;;;;14.05;100.00;101442.44;5086306;28;20032;-82
2022/08/02 03:43:31;;;;;;;8.30;3.58;;;;;;;13.98;100.00;101438.41;5068429;28;20035;-83
2022/08/02 03:46:00;;;;;;;5.65;2.90;;;;;;;14.03;100.00;101441.66;5084713;28;20029;-82
2022/08/02 03:48:27;;;;;;;6.88;2.65;;;;;;;14.10;100.00;101442.00;5082588;28;20099;-81
2022/08/02 03:50:54;;;;;;;8.43;3.10;;;;;;;14.06;100.00;101435.91;5069735;28;20020;-83
2022/08/02 03:53:21;;;;;;;9.68;3.42;;;;;;;13.94;100.00;101434.19;5069382;28;20058;-83
2022/08/02 03:55:47;;;;;;;9.98;3.45;;;;;;;13.93;100.00;101432.44;5070791;28;20028;-83
2022/08/02 03:58:22;;;;;;;13.52;3.53;;;;;;;13.83;100.00;101426.81;5070707;28;20437;-82
2022/08/02 04:00:52;;;;;;;5.55;3.00;;;;;;;13.73;100.00;101423.97;5084584;28;20438;-81
2022/08/02 04:03:18;;;;;;;7.05;3.65;;;;;;;13.74;100.00;101424.81;5102546;28;20036;-84
2022/08/02 04:05:44;;;;;;;14.98;3.80;;;;;;;13.85;100.00;101421.19;5068843;28;20020;-82
2022/08/02 04:08:10;;;;;;;7.57;3.55;;;;;;;14.02;100.00;101426.16;5053211;28;20035;-83
2022/08/02 04:13:32;;;;;;;8.25;3.60;;;;;;;13.93;100.00;101426.91;5102624;28;20024;-81
2022/08/02 04:16:13;;;;;;;9.05;3.42;;;;;;;13.93;100.00;101427.78;5092412;28;20031;-81
2022/08/02 04:18:51;;;;;;;8.95;3.50;;;;;;;13.94;100.00;101425.94;5073134;28;20051;-82
2022/08/02 04:21:25;;;;;;;7.20;3.28;;;;;;;13.98;100.00;101431.03;5082064;28;20107;-83
2022/08/02 04:23:52;;;;;;;5.40;2.85;;;;;;;13.96;100.00;101437.69;5066670;28;20119;-81
2022/08/02 04:26:18;;;;;;;9.10;2.92;;;;;;;13.96;100.00;101427.53;5089148;28;20031;-80
2022/08/02 04:28:47;;;;;;;12.05;3.70;;;;;;;14.00;100.00;101422.63;5064686;28;20114;-80
2022/08/02 04:31:17;;;;;;;9.50;3.55;;;;;;;14.20;100.00;101433.84;5081299;28;20387;-81
2022/08/02 04:33:45;;;;;;;7.25;3.42;;;;;;;14.14;100.00;101425.09;5081532;28;20123;-82
2022/08/02 04:36:13;;;;;;;6.70;3.67;;;;;;;14.19;100.00;101421.97;5100716;28;20047;-81
2022/08/02 04:38:40;;;;;;;8.43;3.33;;;;;;;14.30;100.00;101423.81;5036827;28;20095;-78
2022/08/02 04:41:09;;;;;;;5.22;3.28;;;;;;;14.38;100.00;101425.88;5066711;28;20036;-79
2022/08/02 04:43:38;;;;;;;10.80;4.03;;;;;;;14.36;100.00;101419.63;5068073;28;20035;-80
2022/08/02 04:46:07;;;;;;;10.88;3.80;;;;;;;14.39;100.00;101427.63;5084925;28;20024;-79
2022/08/02 04:48:35;;;;;;;5.72;3.40;;;;;;;14.53;100.00;101430.06;5083090;28;20376;-79
2022/08/02 04:51:01;;;;;;;9.02;3.42;;;;;;;14.70;100.00;101425.88;5095808;28;20043;-79
2022/08/02 04:53:27;;;;;;;9.48;3.60;;;;;;;14.69;100.00;101435.13;5065471;28;20035;-80
2022/08/02 04:55:53;;;;;;;6.10;3.40;;;;;;;14.66;100.00;101443.72;5082394;28;20036;-80
2022/08/02 04:58:19;;;;;;;11.15;4.07;;;;;;;14.82;100.00;101437.69;5064845;28;20040;-79
2022/08/02 05:00:44;;;;;;;10.55;3.65;;;;;;;14.71;100.00;101430.38;5063077;28;20176;-79
2022/08/02 05:03:10;;;;;;;9.18;4.05;;;;;;;14.72;100.00;101432.13;5060487;28;20117;-80
2022/08/02 05:05:37;;;;;;;9.40;4.15;;;;;;;14.70;100.00;101428.63;5064748;28;20032;-80
2022/08/02 05:08:04;;;;;;;11.65;4.28;;;;;;;14.64;100.00;101434.66;5081333;28;20036;-80
2022/08/02 05:10:33;;;;;;;11.93;4.20;;;;;;;14.64;100.00;101431.91;5082712;28;20041;-80
2022/08/02 05:13:05;;;;;;;8.90;3.92;;;;;;;14.58;100.00;101424.19;5062138;28;20043;-81
2022/08/02 05:15:30;;;;;;;14.30;4.68;;;;;;;14.63;100.00;101436.56;5056332;28;20053;-81
2022/08/02 05:18:01;;;;;;;10.32;4.28;;;;;;;14.61;100.00;101433.06;5051920;28;20403;-81
2022/08/02 05:20:30;;;;;;;11.82;5.18;;;;;;;14.68;100.00;101427.91;5050692;28;20082;-82
2022/08/02 05:23:04;;;;;;;9.68;4.40;;;;;;;14.69;100.00;101425.00;5065246;28;20040;-80
2022/08/02 05:25:33;;;;;;;10.57;4.45;;;;;;;14.68;100.00;101423.25;5054270;28;20034;-79
2022/08/02 05:28:02;;;;;;;9.23;5.60;;;;;;;14.80;100.00;101421.28;5069424;28;20060;-82
2022/08/02 05:30:32;;;;;;;7.32;4.65;;;;;;;14.81;100.00;101423.06;5047452;28;20067;-80
2022/08/02 05:33:03;;;;;;;11.88;4.85;;;;;;;15.04;100.00;101420.16;5066130;28;20063;-81
2022/08/02 05:35:32;;;;;;;10.52;5.20;;;;;;;15.46;100.00;101416.41;5049926;28;20043;-80
2022/08/02 05:37:58;;;;;;;15.55;5.68;;;;;;;15.55;100.00;101418.34;5085982;28;20476;-80
2022/08/02 05:40:27;;;;;;;12.38;5.57;;;;;;;15.46;100.00;101408.13;5083126;28;20066;-82
2022/08/02 05:42:54;;;;;;;15.48;5.72;;;;;;;15.89;100.00;101418.00;5104475;28;20031;-80
2022/08/02 05:45:22;;;;;;;13.45;6.10;;;;;;;15.97;100.00;101413.53;5067672;28;20032;-80
2022/08/02 05:47:51;;;;;;;13.55;6.10;;;;;;;16.04;100.00;101415.72;5066888;28;20035;-81
2022/08/02 05:50:20;;;;;;;14.02;6.05;;;;;;;16.40;100.00;101404.94;5069798;28;20046;-81
2022/08/02 05:52:55;;;;;;;15.95;6.32;;;;;;;16.46;100.00;101413.56;5065479;28;20036;-80
2022/08/02 05:55:33;;;;;;;12.10;6.15;;;;;;;16.71;100.00;101409.28;5080276;28;20032;-79
2022/08/02 05:58:12;;;;;;;16.83;7.05;;;;;;;16.62;100.00;101414.84;5078122;28;20035;-80
2022/08/02 06:00:41;;;;;;;11.05;5.75;;;;;;;17.27;100.00;101412.25;5103148;28;20027;-81
2022/08/02 06:03:28;;;;;;;14.90;5.82;;;;;;;17.62;100.00;101413.38;5067801;28;20475;-79
2022/08/02 06:06:03;;;;;;;20.00;6.35;;;;;;;17.67;100.00;101412.94;5085374;28;20016;-81
2022/08/02 06:08:55;;;;;;;22.05;6.53;;;;;;;17.63;100.00;101418.78;5086567;28;20024;-80
2022/08/02 06:11:24;;;;;;;11.35;6.20;;;;;;;17.89;100.00;101417.19;5084364;28;20028;-81
2022/08/02 06:13:51;;;;;;;16.38;6.93;;;;;;;18.13;100.00;101420.22;5092317;28;20073;-80
2022/08/02 06:16:18;;;;;;;15.48;6.68;;;;;;;18.39;100.00;101427.75;5065665;28;20998;-81
2022/08/02 06:18:48;;;;;;;14.38;6.63;;;;;;;18.87;100.00;101428.38;5082424;28;20036;-81
2022/08/02 06:21:15;;;;;;;12.88;6.90;;;;;;;18.89;100.00;101427.19;5095161;28;20056;-81
2022/08/02 06:23:42;;;;;;;20.85;6.50;;;;;;;19.18;100.00;101437.09;5080437;28;20036;-80
2022/08/02 06:26:12;;;;;;;11.13;5.68;;;;;;;19.71;100.00;101434.22;5101952;28;20036;-81
2022/08/02 06:28:45;;;;;;;11.45;6.40;;;;;;;19.83;100.00;101430.16;5050989;28;20024;-81
2022/08/02 06:31:11;;;;;;;14.23;7.13;;;;;;;19.53;100.00;101420.44;5063385;28;20116;-79
2022/08/02 06:33:37;;;;;;;13.88;6.85;;;;;;;19.74;100.00;101426.47;5047994;28;20064;-81
2022/08/02 06:36:09;;;;;;;14.13;6.32;;;;;;;19.80;100.00;101434.13;5076824;28;20547;-81
2022/08/02 06:38:42;;;;;;;11.68;6.53;;;;;;;20.33;100.00;101428.34;5098850;28;20099;-82
2022/08/02 06:41:13;;;;;;;16.92;5.90;;;;;;;20.33;100.00;101420.91;5083846;28;20028;-81
2022/08/02 06:43:53;;;;;;;10.48;6.57;;;;;;;19.72;100.00;101420.16;5089246;28;20118;-81
2022/08/02 06:46:21;;;;;;;12.25;6.60;;;;;;;20.19;100.00;101411.31;5084814;28;20036;-80
2022/08/02 06:48:47;;;;;;;12.90;6.10;;;;;;;20.56;100.00;101407.19;5101358;28;20055;-82
2022/08/02 06:51:13;;;;;;;10.10;5.75;;;;;;;20.92;100.00;101405.94;5068110;28;20048;-81
2022/08/02 06:53:40;;;;;;;11.90;7.05;;;;;;;21.07;100.00;101412.56;5079078;28;20036;-81
2022/08/02 06:56:08;;;;;;;12.25;7.03;;;;;;;21.57;100.00;101412.44;5050646;28;20561;-80
2022/08/02 06:58:34;;;;;;;11.73;7.05;;;;;;;21.07;100.00;101415.34;5098650;28;20510;-81
2022/08/02 07:01:01;;;;;;;14.55;7.47;;;;;;;21.42;100.00;101413.16;5050283;28;20103;-81
2022/08/02 07:03:29;;;;;;;9.70;7.65;;;;;;;21.72;100.00;101416.19;5068178;28;20476;-81
2022/08/02 07:05:59;;;;;;;14.40;7.85;;;;;;;21.76;100.00;101420.38;5084217;28;20089;-81
2022/08/02 07:08:31;;;;;;;12.18;8.48;;;;;;;21.88;100.00;101415.25;5099373;28;20047;-80
2022/08/02 07:10:59;;;;;;;17.70;7.88;;;;;;;22.18;100.00;101410.69;5100754;28;20082;-80
2022/08/02 07:13:27;;;;;;;12.57;7.88;;;;;;;22.05;100.00;101413.22;5083197;28;20515;-81
2022/08/02 07:15:53;;;;;;;15.82;8.20;;;;;;;22.03;100.00;101409.75;5084989;28;20446;-81
2022/08/02 07:18:22;;;;;;;13.85;7.70;;;;;;;22.58;100.00;101405.06;5066135;28;20096;-82
2022/08/02 07:20:50;;;;;;;16.48;7.95;;;;;;;22.95;100.00;101412.53;5099893;28;20107;-80
2022/08/02 07:23:17;;;;;;;15.13;8.00;;;;;;;22.44;100.00;101420.69;5084116;28;20027;-80
2022/08/02 07:25:46;;;;;;;13.80;7.65;;;;;;;22.80;100.00;101416.38;5068605;28;20031;-81
2022/08/02 07:28:14;;;;;;;10.60;6.80;;;;;;;23.27;100.00;101407.72;5060970;28;20075;-80
2022/08/02 07:30:42;;;;;;;11.90;6.57;;;;;;;23.70;100.00;101411.75;5096396;28;20540;-81
2022/08/02 07:33:10;;;;;;;11.25;6.18;;;;;;;23.56;100.00;101405.97;5072076;28;20392;-80
2022/08/02 07:35:36;;;;;;;14.20;6.07;;;;;;;24.28;100.00;101414.63;5078421;28;20059;-82
2022/08/02 07:38:02;;;;;;;8.55;5.80;;;;;;;23.68;100.00;101410.00;5057602;28;1207497;-80
2022/08/02 07:40:28;;;;;;;10.95;5.63;;;;;;;24.00;100.00;101407.84;5067540;28;20034;-80
2022/08/02 07:42:57;;;;;;;6.75;5.53;;;;;;;23.54;100.00;101407.22;5102466;28;20491;-82
2022/08/02 07:45:24;;;;;;;6.63;5.32;;;;;;;23.72;100.00;101407.69;5093321;28;20020;-82
2022/08/02 07:47:55;;;;;;;9.73;5.18;;;;;;;24.28;100.00;101409.88;5066817;28;20044;-81
2022/08/02 07:50:21;;;;;;;8.63;5.32;;;;;;;23.89;100.00;101405.59;5050404;28;20029;-80
2022/08/02 07:52:48;;;;;;;6.50;4.65;;;;;;;23.85;100.00;101409.81;5083804;28;20032;-80
2022/08/02 07:55:15;;;;;;;9.05;5.10;;;;;;;22.95;100.00;101404.16;5101708;28;20054;-82
2022/08/02 07:57:41;;;;;;;9.73;4.45;;;;;;;24.02;100.00;101399.25;5084431;28;20119;-80
2022/08/02 08:00:11;;;;;;;10.25;4.50;;;;;;;24.36;100.00;101406.97;5086652;28;20119;-81
2022/08/02 08:02:38;;;;;;;10.88;4.65;;;;;;;24.86;100.00;101401.44;5085137;28;20036;-81
2022/08/02 08:05:05;;;;;;;11.77;4.70;;;;;;;25.16;99.87;101400.38;5083099;28;20024;-80
2022/08/02 08:07:33;;;;;;;9.63;4.53;;;;;;;25.17;99.88;101400.19;5083435;28;20364;-80
2022/08/02 08:10:00;;;;;;;4.45;3.88;;;;;;;25.54;99.53;101403.66;5100569;28;20603;-81
2022/08/02 08:12:26;;;;;;;7.18;4.72;;;;;;;24.78;100.00;101393.19;5083560;28;20032;-80
2022/08/02 08:14:53;;;;;;;8.50;3.88;;;;;;;25.58;99.94;101399.38;5064258;28;20032;-83
2022/08/02 08:17:21;;;;;;;5.20;4.00;;;;;;;25.56;96.56;101400.63;5048812;28;20036;-81
2022/08/02 08:19:50;;;;;;;11.10;4.10;;;;;;;25.62;95.28;101402.63;5067175;28;20024;-80
2022/08/02 08:22:16;;;;;;;8.57;3.90;;;;;;;25.86;93.11;101399.28;5058692;28;20028;-80
2022/08/02 08:24:46;;;;;;;5.93;3.25;;;;;;;25.88;91.98;101398.22;5058191;28;20025;-79
2022/08/02 08:27:14;;;;;;;5.95;2.95;;;;;;;25.80;91.29;101411.34;5070645;28;20428;-78
2022/08/02 08:29:44;;;;;;;4.10;2.33;;;;;;;25.59;90.55;101406.69;5042154;28;20054;-77
2022/08/02 08:32:10;;;;;;;13.00;2.83;;;;;;;25.73;88.95;101396.41;5055869;28;20060;-77
2022/08/02 08:34:35;;;;;;;4.28;2.90;;;;;;;26.07;89.66;101397.44;5094469;28;20091;-79
2022/08/02 08:37:06;;;;;;;8.10;3.08;;;;;;;26.21;89.58;101403.97;5055438;28;20052;-78
2022/08/02 08:39:32;;;;;;;9.23;2.85;;;;;;;26.31;87.75;101395.97;5094334;28;20040;-77
2022/08/02 08:41:59;;;;;;;10.38;3.05;;;;;;;25.60;92.23;101407.59;5040322;28;20028;-78
2022/08/02 08:44:26;;;;;;;6.50;3.20;;;;;;;25.92;92.12;101402.31;5076194;28;20395;-78
2022/08/02 08:46:56;;;;;;;5.15;2.40;;;;;;;25.91;90.25;101393.03;5067153;28;20123;-78
2022/08/02 08:49:32;;;;;;;6.03;3.20;;;;;;;25.77;91.11;101392.09;5096058;28;20039;-78
2022/08/02 08:52:04;;;;;;;7.85;2.97;;;;;;;25.71;91.17;101392.06;5083989;28;20059;-77
2022/08/02 08:54:34;;;;;;;5.47;2.83;;;;;;;26.21;91.02;101390.78;5094166;28;20075;-77
2022/08/02 08:57:04;;;;;;;13.07;2.50;;;;;;;26.15;91.46;101390.75;5078103;28;20028;-77
2022/08/02 08:59:33;;;;;;;6.22;2.72;;;;;;;26.06;91.53;101384.50;5080803;28;20032;-77
2022/08/02 09:02:02;;;;;;;5.03;3.03;;;;;;;26.40;89.79;101383.47;5098837;28;20066;-77
2022/08/02 09:04:31;;;;;;;6.65;2.97;;;;;;;26.19;90.25;101389.28;5080554;28;20028;-78
2022/08/02 09:06:57;;;;;;;3.58;2.83;;;;;;;27.16;86.79;101391.72;5077233;28;20040;-78
2022/08/02 09:09:23;;;;;;;6.15;2.30;;;;;;;26.85;86.72;101394.13;5098383;28;20063;-78
2022/08/02 09:11:49;;;;;;;5.82;2.80;;;;;;;27.25;86.02;101388.47;5081069;28;20047;-78
2022/08/02 09:14:26;;;;;;;7.75;2.60;;;;;;;26.87;86.91;101394.75;5099439;28;20040;-77
2022/08/02 09:17:06;;;;;;;10.65;2.75;;;;;;;27.14;86.81;101392.81;5085267;28;20028;-78
2022/08/02 09:19:33;;;;;;;2.88;2.38;;;;;;;26.67;87.65;101388.28;5102342;28;20035;-78
2022/08/02 09:22:07;;;;;;;4.22;2.10;;;;;;;26.93;88.18;101388.28;5083047;28;20036;-78
2022/08/02 09:24:41;;;;;;;6.97;3.17;;;;;;;26.66;87.37;101392.16;5081632;28;20020;-77
2022/08/02 09:27:19;;;;;;;6.15;2.67;;;;;;;26.15;90.74;101385.16;5081754;28;20036;-77
2022/08/02 09:29:53;;;;;;;5.18;2.35;;;;;;;26.09;91.68;101392.47;5078490;28;20016;-80
2022/08/02 09:32:20;;;;;;;6.70;2.10;;;;;;;25.65;93.99;101376.97;5073670;28;20119;-77
2022/08/02 09:34:51;;;;;;;2.67;1.98;;;;;;;26.10;91.98;101380.16;5083822;28;20056;-78
2022/08/02 09:37:22;;;;;;;2.38;2.13;;;;;;;26.12;91.95;101389.25;5090624;28;20448;-79
2022/08/02 09:39:48;;;;;;;6.05;2.20;;;;;;;26.14;90.92;101387.09;5081190;28;20047;-79
2022/08/02 09:42:14;;;;;;;4.55;2.08;;;;;;;27.41;85.77;101387.16;5057197;28;20052;-79
2022/08/02 09:45:01;;;;;;;3.83;2.10;;;;;;;26.88;86.77;101381.59;5079250;28;20043;-79
2022/08/02 09:47:29;;;;;;;3.72;2.13;;;;;;;26.72;88.29;101391.31;5079069;28;20464;-78
2022/08/02 09:49:59;;;;;;;5.93;2.28;;;;;;;27.08;86.93;101388.03;5080396;28;20029;-78
2022/08/02 09:52:31;;;;;;;5.53;2.35;;;;;;;26.96;87.90;101381.38;5059225;28;20029;-78
2022/08/02 09:55:06;;;;;;;4.15;1.73;;;;;;;27.74;83.59;101385.31;5058621;28;20033;-79
2022/08/02 09:57:38;;;;;;;6.13;1.98;;;;;;;27.63;82.78;101390.56;5078702;28;20029;-78
2022/08/02 10:00:11;;;;;;;4.55;2.17;;;;;;;27.10;86.80;101383.06;5042341;28;20033;-79
2022/08/02 10:02:39;;;;;;;5.82;1.95;;;;;;;27.50;84.82;101370.91;5079968;28;20480;-79
2022/08/02 10:05:09;;;;;;;5.35;1.80;;;;;;;26.78;87.91;101376.41;5027748;28;20029;-79
2022/08/02 10:07:41;;;;;;;10.20;2.17;;;;;;;27.03;86.17;101370.97;5064769;28;20033;-79
2022/08/02 10:10:10;;;;;;;4.28;2.00;;;;;;;27.05;86.98;101377.22;5060212;28;20403;-80
2022/08/02 10:12:38;;;;;;;4.15;1.77;;;;;;;26.88;88.39;101375.97;5077137;28;20032;-78
2022/08/02 10:15:05;;;;;;;3.40;1.92;;;;;;;26.58;87.48;101360.38;5074871;28;20040;-78
2022/08/02 10:17:32;;;;;;;4.95;1.67;;;;;;;27.36;84.90;101367.25;5060967;28;20060;-77
2022/08/02 10:19:59;;;;;;;6.85;1.75;;;;;;;27.79;84.46;101363.84;5050902;28;20029;-77
2022/08/02 10:22:25;;;;;;;3.10;2.10;;;;;;;27.86;83.18;101367.50;5078707;28;20126;-79
2022/08/02 10:24:53;;;;;;;2.83;1.73;;;;;;;27.44;82.97;101375.44;5080206;28;20074;-78
2022/08/02 10:27:19;;;;;;;2.28;1.95;;;;;;;27.87;80.43;101373.97;5049275;28;20531;-77
2022/08/02 10:29:49;;;;;;;5.00;1.58;;;;;;;27.39;81.98;101371.59;5065464;28;20032;-77
2022/08/02 10:32:38;;;;;;;6.88;1.60;;;;;;;28.60;76.52;101375.56;5081220;28;20052;-78
2022/08/02 10:35:10;;;;;;;5.00;1.33;;;;;;;28.29;75.79;101371.63;5067061;28;20542;-78
2022/08/02 10:37:44;;;;;;;13.27;1.50;;;;;;;28.39;70.75;101371.13;5084083;28;20087;-77
2022/08/02 10:40:21;;;;;;;4.38;1.50;;;;;;;28.52;71.04;101367.34;5068474;28;20044;-77
2022/08/02 10:42:58;;;;;;;6.28;1.30;;;;;;;28.82;65.90;101361.06;5065825;28;20036;-78
2022/08/02 10:45:24;;;;;;;2.35;1.48;;;;;;;28.14;69.24;101362.59;5067696;28;20119;-77
2022/08/02 10:48:00;;;;;;;6.68;1.67;;;;;;;27.69;70.72;101363.47;5085304;28;20024;-78
2022/08/02 10:50:51;;;;;;;4.00;1.50;;;;;;;27.21;73.03;101361.84;5083421;28;20033;-77
2022/08/02 10:53:31;;;;;;;6.27;1.67;;;;;;;27.58;71.02;101352.91;5065425;28;20051;-77
2022/08/02 10:56:02;;;;;;;5.07;1.60;;;;;;;27.59;71.27;101355.50;5078898;28;20105;-78
2022/08/02 10:58:33;;;;;;;5.20;1.50;;;;;;;28.00;67.29;101351.41;5082458;28;20059;-77
2022/08/02 11:01:29;;;;;;;3.22;1.30;;;;;;;27.69;67.26;101350.28;5078602;28;20052;-79
2022/08/02 11:03:59;;;;;;;3.20;1.38;;;;;;;27.91;68.41;101349.94;5076012;28;20064;-77
2022/08/02 11:06:31;;;;;;;3.13;1.40;;;;;;;27.83;66.98;101356.69;5063669;28;20032;-78
2022/08/02 11:09:33;;;;;;;3.42;1.52;;;;;;;27.41;68.05;101352.53;5046246;28;20474;-77
2022/08/02 11:12:03;;;;;;;3.03;1.55;;;;;;;27.52;69.12;101346.22;5078483;28;20051;-77
2022/08/02 11:14:31;;;;;;;10.80;1.70;;;;;;;27.93;66.96;101347.78;5085567;28;20028;-77
2022/08/02 11:16:56;;;;;;;5.05;1.30;;;;;;;27.36;69.33;101353.19;5082451;28;20024;-77
2022/08/02 11:19:25;;;;;;;6.10;1.40;;;;;;;27.16;70.02;101339.16;5083996;28;20029;-79
2022/08/02 11:22:01;;;;;;;6.80;1.30;;;;;;;27.86;65.96;101342.16;5087542;28;20048;-78
2022/08/02 11:24:37;;;;;;;3.88;1.30;;;;;;;28.13;64.56;101353.31;5076297;28;20570;-77
2022/08/02 11:27:07;;;;;;;3.70;1.27;;;;;;;28.44;63.85;101334.66;5059851;28;20037;-77
2022/08/02 11:29:40;;;;;;;1.75;1.27;;;;;;;29.06;62.66;101340.41;5082138;28;20085;-77
2022/08/02 11:32:23;;;;;;;4.85;1.70;;;;;;;28.76;63.30;101337.44;5065228;28;20043;-77
2022/08/02 11:34:53;;;;;;;3.50;1.38;;;;;;;29.13;63.87;101331.88;5057096;28;20044;-77